Time;durP1;ratioP1;P1;durP2;ratioP2;P2;SDS_P1;SDS_P2;PMS_P1;PMS_P2;Temp;Humidity;BMP_temperature;BMP_pressure;BME280_temperature;BME280_humidity;BME280_pressure;Samples;Min_cycle;Max_cycle;Signal;HPM_P1;HPM_P2
2021/09/12 00:01:37;;;;;;;3.40;3.10;;;11.90;99.90;;;;;;459550;256;28249;-70
2021/09/12 00:03:38;;;;;;;3.27;3.07;;;11.90;99.90;;;;;;459594;256;28193;-70
2021/09/12 00:05:40;;;;;;;3.77;3.30;;;;;;;;;;459563;257;28385;-70
2021/09/12 00:07:41;;;;;;;5.07;4.30;;;12.00;99.90;;;;;;459558;257;27504;-70
2021/09/12 00:09:43;;;;;;;3.60;3.30;;;12.00;99.90;;;;;;459565;255;28626;-70
2021/09/12 00:11:44;;;;;;;3.43;2.87;;;12.00;99.90;;;;;;459552;256;28079;-71
2021/09/12 00:13:45;;;;;;;3.80;3.40;;;12.00;99.90;;;;;;459557;257;28096;-70
2021/09/12 00:15:46;;;;;;;3.40;3.20;;;11.90;99.90;;;;;;459575;256;28489;-70
2021/09/12 00:17:48;;;;;;;3.50;3.20;;;11.90;99.90;;;;;;459559;257;28508;-70
2021/09/12 00:19:49;;;;;;;3.30;3.10;;;11.90;99.90;;;;;;459538;256;28298;-70
2021/09/12 00:21:50;;;;;;;2.97;2.77;;;11.80;99.90;;;;;;459508;256;28443;-70
2021/09/12 00:23:51;;;;;;;2.90;2.70;;;11.70;99.90;;;;;;459522;256;28402;-70
2021/09/12 00:25:53;;;;;;;3.00;2.80;;;11.60;99.90;;;;;;459483;256;28833;-69
2021/09/12 00:27:54;;;;;;;3.13;2.83;;;11.60;99.90;;;;;;459485;256;28723;-70
2021/09/12 00:29:56;;;;;;;2.90;2.70;;;11.60;99.90;;;;;;459526;257;28823;-70
2021/09/12 00:31:57;;;;;;;2.70;2.50;;;11.60;99.90;;;;;;459503;258;28742;-70
2021/09/12 00:33:58;;;;;;;3.60;3.30;;;11.60;99.90;;;;;;459541;256;28125;-70
2021/09/12 00:35:59;;;;;;;4.50;3.23;;;11.60;99.90;;;;;;459492;256;28334;-70
2021/09/12 00:38:00;;;;;;;3.93;3.10;;;11.70;99.90;;;;;;459524;256;28410;-70
2021/09/12 00:40:02;;;;;;;3.27;2.90;;;11.60;99.90;;;;;;459528;256;28074;-70
2021/09/12 00:42:03;;;;;;;3.60;3.30;;;11.50;99.90;;;;;;459520;256;27854;-70
2021/09/12 00:44:04;;;;;;;3.33;3.13;;;11.50;99.90;;;;;;459551;256;28185;-70
2021/09/12 00:46:08;;;;;;;3.13;2.87;;;11.50;99.90;;;;;;459537;256;28219;-69
2021/09/12 00:48:09;;;;;;;3.17;2.90;;;11.50;99.90;;;;;;459564;256;28331;-70
2021/09/12 00:50:10;;;;;;;2.70;2.50;;;11.50;99.90;;;;;;459550;256;28060;-70
2021/09/12 00:52:12;;;;;;;3.67;3.30;;;11.50;99.90;;;;;;459549;256;28767;-70
2021/09/12 00:54:13;;;;;;;3.53;3.10;;;11.50;99.90;;;;;;459533;259;28859;-70
2021/09/12 00:56:14;;;;;;;4.00;3.33;;;11.50;99.90;;;;;;459547;257;28962;-70
2021/09/12 00:58:15;;;;;;;4.63;3.70;;;11.50;99.90;;;;;;459527;256;28649;-69
2021/09/12 01:00:17;;;;;;;3.87;3.57;;;11.50;99.90;;;;;;459536;256;27939;-70
2021/09/12 01:02:21;;;;;;;3.83;3.53;;;11.40;99.90;;;;;;459548;255;28164;-70
2021/09/12 01:04:19;;;;;;;3.90;3.40;;;11.40;99.90;;;;;;459347;259;28079;-69
2021/09/12 01:06:20;;;;;;;3.83;3.43;;;11.40;99.90;;;;;;459454;256;28023;-70
2021/09/12 01:08:22;;;;;;;3.23;2.93;;;11.40;99.90;;;;;;459552;256;28229;-69
2021/09/12 01:10:23;;;;;;;3.50;3.20;;;11.40;99.90;;;;;;459558;256;27967;-70
2021/09/12 01:12:24;;;;;;;3.20;2.90;;;11.30;99.90;;;;;;459568;256;28297;-70
2021/09/12 01:14:25;;;;;;;3.90;3.10;;;11.30;99.90;;;;;;459569;257;28124;-70
2021/09/12 01:16:27;;;;;;;2.80;2.60;;;11.30;99.90;;;;;;459542;257;28953;-70
2021/09/12 01:18:28;;;;;;;3.53;3.23;;;11.30;99.90;;;;;;459551;256;28789;-70
2021/09/12 01:20:29;;;;;;;3.20;3.00;;;11.30;99.90;;;;;;459574;257;28507;-70
2021/09/12 01:22:30;;;;;;;3.03;2.70;;;11.30;99.90;;;;;;459582;255;28678;-69
2021/09/12 01:24:32;;;;;;;3.50;3.20;;;11.40;99.90;;;;;;459552;256;28190;-71
2021/09/12 01:26:33;;;;;;;4.73;3.33;;;11.40;99.90;;;;;;459590;256;28076;-70
2021/09/12 01:28:34;;;;;;;4.00;3.70;;;11.30;99.90;;;;;;459595;257;28094;-70
2021/09/12 01:30:35;;;;;;;3.33;3.03;;;11.20;99.90;;;;;;459597;256;28047;-69
2021/09/12 01:32:37;;;;;;;3.13;2.93;;;11.20;99.90;;;;;;459559;256;28046;-70
2021/09/12 01:34:38;;;;;;;3.10;2.80;;;11.10;99.90;;;;;;459575;256;28022;-70
2021/09/12 01:36:39;;;;;;;2.83;2.63;;;11.10;99.90;;;;;;459575;256;27927;-70
2021/09/12 01:38:40;;;;;;;3.03;2.83;;;11.10;99.90;;;;;;459569;256;28088;-70
2021/09/12 01:40:42;;;;;;;2.77;2.50;;;11.10;99.90;;;;;;459546;256;28174;-70
2021/09/12 01:42:43;;;;;;;3.00;2.80;;;11.10;99.90;;;;;;459603;256;28616;-70
2021/09/12 01:44:44;;;;;;;2.80;2.60;;;11.00;99.90;;;;;;458598;256;28692;-70
2021/09/12 01:46:48;;;;;;;2.57;2.37;;;11.00;99.90;;;;;;459637;259;28329;-70
2021/09/12 01:48:49;;;;;;;3.30;3.00;;;11.00;99.90;;;;;;459634;256;28704;-70
2021/09/12 01:50:51;;;;;;;3.10;2.83;;;11.00;99.90;;;;;;461981;254;28048;-70
2021/09/12 01:52:52;;;;;;;4.80;2.97;;;11.00;99.90;;;;;;464240;254;28030;-70
2021/09/12 01:54:53;;;;;;;4.93;3.53;;;11.00;99.90;;;;;;464134;254;28201;-69
2021/09/12 01:56:54;;;;;;;3.17;2.87;;;11.00;99.90;;;;;;464102;254;28192;-70
2021/09/12 01:58:56;;;;;;;2.83;2.60;;;11.10;99.90;;;;;;464089;254;28360;-70
2021/09/12 02:00:57;;;;;;;3.90;2.53;;;11.00;99.90;;;;;;464075;254;28219;-69
2021/09/12 02:02:58;;;;;;;3.07;2.77;;;11.00;99.90;;;;;;464148;254;28242;-69
2021/09/12 02:04:59;;;;;;;3.93;2.73;;;10.90;99.90;;;;;;464224;254;28013;-69
2021/09/12 02:07:01;;;;;;;2.90;2.70;;;10.90;99.90;;;;;;464211;254;28287;-70
2021/09/12 02:09:02;;;;;;;2.70;2.50;;;10.80;99.90;;;;;;464226;254;28744;-69
2021/09/12 02:11:03;;;;;;;2.40;2.30;;;10.80;99.90;;;;;;461498;254;28471;-69
2021/09/12 02:13:04;;;;;;;2.90;2.70;;;10.80;99.90;;;;;;457880;259;28554;-69
2021/09/12 02:15:06;;;;;;;2.77;2.57;;;10.80;99.90;;;;;;457486;259;28234;-70
2021/09/12 02:17:07;;;;;;;2.10;2.00;;;10.80;99.90;;;;;;458297;259;28046;-70
2021/09/12 02:19:08;;;;;;;2.50;2.30;;;10.80;99.90;;;;;;458205;259;28079;-69
2021/09/12 02:21:09;;;;;;;2.70;2.40;;;10.80;99.90;;;;;;459156;256;27822;-70
2021/09/12 02:23:11;;;;;;;2.10;2.00;;;10.80;99.90;;;;;;459720;259;28246;-70
2021/09/12 02:25:12;;;;;;;2.50;2.30;;;10.90;99.90;;;;;;458223;256;27875;-69
2021/09/12 02:27:13;;;;;;;2.57;2.37;;;10.90;99.90;;;;;;461854;254;27857;-70
2021/09/12 02:29:14;;;;;;;2.60;2.40;;;10.80;99.90;;;;;;459734;259;28186;-69
2021/09/12 02:31:16;;;;;;;4.23;2.90;;;10.80;99.90;;;;;;459760;259;27974;-70
2021/09/12 02:33:17;;;;;;;2.87;2.67;;;10.80;99.90;;;;;;459777;258;28516;-69
2021/09/12 02:35:18;;;;;;;3.20;2.90;;;10.80;99.90;;;;;;459749;258;28407;-69
2021/09/12 02:37:19;;;;;;;3.30;3.00;;;10.80;99.90;;;;;;459795;259;28493;-69
2021/09/12 02:39:21;;;;;;;2.30;2.20;;;10.80;99.90;;;;;;459739;259;28414;-70
2021/09/12 02:41:22;;;;;;;3.27;2.97;;;10.80;99.90;;;;;;459753;259;27597;-70
2021/09/12 02:43:23;;;;;;;3.00;2.50;;;10.80;99.90;;;;;;459751;259;28002;-69
2021/09/12 02:45:24;;;;;;;2.53;2.43;;;10.70;99.90;;;;;;459768;259;27970;-70
2021/09/12 02:47:26;;;;;;;3.10;2.90;;;10.70;99.90;;;;;;459747;259;27926;-69
2021/09/12 02:49:27;;;;;;;2.63;2.43;;;10.70;99.90;;;;;;459161;259;27954;-70
2021/09/12 02:51:28;;;;;;;2.60;2.40;;;10.60;99.90;;;;;;459360;259;27915;-70
2021/09/12 02:53:29;;;;;;;2.87;2.27;;;10.60;99.90;;;;;;458180;259;28328;-69
2021/09/12 02:55:31;;;;;;;2.40;2.20;;;10.60;99.90;;;;;;458930;256;28022;-70
2021/09/12 02:57:32;;;;;;;2.13;2.03;;;10.60;99.90;;;;;;461144;254;28766;-70
2021/09/12 02:59:33;;;;;;;2.27;2.07;;;10.60;99.90;;;;;;459254;259;28561;-69
2021/09/12 03:01:34;;;;;;;2.40;2.30;;;10.60;99.90;;;;;;458543;259;28423;-69
2021/09/12 03:03:36;;;;;;;2.53;2.43;;;10.70;99.90;;;;;;459060;259;28564;-69
2021/09/12 03:05:37;;;;;;;2.53;2.40;;;10.60;99.90;;;;;;461120;256;28141;-69
2021/09/12 03:07:38;;;;;;;2.40;2.20;;;10.60;99.90;;;;;;459720;259;28196;-69
2021/09/12 03:09:39;;;;;;;2.60;2.40;;;10.60;99.90;;;;;;459732;259;27956;-69
2021/09/12 03:11:41;;;;;;;2.73;2.53;;;10.60;99.90;;;;;;459747;259;27988;-69
2021/09/12 03:13:42;;;;;;;2.40;2.30;;;10.60;99.90;;;;;;459739;258;27802;-69
2021/09/12 03:15:43;;;;;;;2.23;2.03;;;10.50;99.90;;;;;;459727;259;27905;-70
2021/09/12 03:17:44;;;;;;;2.70;2.50;;;10.50;99.90;;;;;;459723;258;27953;-69
2021/09/12 03:19:46;;;;;;;2.90;2.70;;;10.50;99.90;;;;;;459751;259;27986;-70
2021/09/12 03:21:47;;;;;;;2.30;2.20;;;10.50;99.90;;;;;;457198;258;28147;-69
2021/09/12 03:23:48;;;;;;;2.60;2.40;;;10.50;99.90;;;;;;459439;259;28490;-69
2021/09/12 03:25:49;;;;;;;2.27;2.17;;;10.50;99.90;;;;;;458601;259;28419;-70
2021/09/12 03:27:52;;;;;;;2.77;2.57;;;10.50;99.90;;;;;;459219;258;28436;-69
2021/09/12 03:29:52;;;;;;;2.50;2.30;;;10.60;99.90;;;;;;459641;256;27936;-69
2021/09/12 03:31:53;;;;;;;2.60;2.50;;;10.60;99.90;;;;;;475153;250;27917;-69
2021/09/12 03:33:54;;;;;;;2.00;1.90;;;10.60;99.90;;;;;;475108;249;27966;-69
2021/09/12 03:35:56;;;;;;;2.43;2.30;;;10.50;99.90;;;;;;475125;250;27627;-69
2021/09/12 03:37:57;;;;;;;2.60;2.40;;;10.40;99.90;;;;;;475082;250;27549;-70
2021/09/12 03:39:58;;;;;;;2.20;2.10;;;10.40;99.90;;;;;;475105;250;27680;-69
2021/09/12 03:41:59;;;;;;;2.47;2.27;;;10.40;99.90;;;;;;475111;250;27941;-69
2021/09/12 03:44:01;;;;;;;2.77;2.57;;;10.40;99.90;;;;;;475101;250;28317;-69
2021/09/12 03:46:02;;;;;;;2.90;2.10;;;10.40;99.90;;;;;;475130;250;28048;-69
2021/09/12 03:48:03;;;;;;;2.80;2.60;;;10.40;99.90;;;;;;475101;250;28420;-69
2021/09/12 03:50:04;;;;;;;2.20;2.10;;;10.40;99.90;;;;;;475115;250;28404;-70
2021/09/12 03:52:06;;;;;;;2.37;2.17;;;10.40;99.90;;;;;;466274;250;28421;-69
2021/09/12 03:54:07;;;;;;;2.40;2.20;;;10.50;99.90;;;;;;465603;255;28504;-69
2021/09/12 03:56:08;;;;;;;2.07;1.97;;;10.40;99.90;;;;;;464880;255;27754;-69
2021/09/12 03:58:09;;;;;;;2.33;2.20;;;10.40;99.90;;;;;;460432;256;28077;-69
2021/09/12 04:00:11;;;;;;;2.53;2.33;;;10.40;99.90;;;;;;459343;255;27793;-69
2021/09/12 04:02:12;;;;;;;2.40;2.30;;;10.30;99.90;;;;;;459388;255;28072;-69
2021/09/12 04:04:13;;;;;;;2.77;2.57;;;10.30;99.90;;;;;;464876;255;27928;-69
2021/09/12 04:06:15;;;;;;;2.10;2.00;;;10.30;99.90;;;;;;463359;255;27999;-70
2021/09/12 04:08:16;;;;;;;2.27;2.17;;;10.30;99.90;;;;;;464760;255;28052;-69
2021/09/12 04:10:17;;;;;;;1.90;1.80;;;10.30;99.90;;;;;;465505;254;27875;-69
2021/09/12 04:12:18;;;;;;;2.20;2.03;;;10.20;99.90;;;;;;461101;257;28523;-69
2021/09/12 04:14:20;;;;;;;2.20;2.10;;;10.20;99.90;;;;;;461104;258;28436;-69
2021/09/12 04:16:21;;;;;;;2.27;1.97;;;10.20;99.90;;;;;;461114;258;27984;-70
2021/09/12 04:18:22;;;;;;;2.27;2.17;;;10.20;99.90;;;;;;461113;253;27988;-69
2021/09/12 04:20:23;;;;;;;2.20;2.10;;;10.20;99.90;;;;;;469092;253;28061;-70
2021/09/12 04:22:25;;;;;;;2.37;2.27;;;10.20;99.90;;;;;;460573;258;28175;-69
2021/09/12 04:24:26;;;;;;;2.17;2.07;;;10.20;99.90;;;;;;460570;258;28223;-70
2021/09/12 04:26:27;;;;;;;2.60;2.40;;;10.20;99.90;;;;;;460419;258;27958;-69
2021/09/12 04:28:28;;;;;;;2.80;2.60;;;10.20;99.90;;;;;;459686;256;27582;-69
2021/09/12 04:30:30;;;;;;;6.17;4.00;;;10.20;99.90;;;;;;460275;255;27925;-69
2021/09/12 04:32:31;;;;;;;2.67;2.47;;;10.20;99.90;;;;;;458434;258;27712;-69
2021/09/12 04:34:32;;;;;;;3.00;2.80;;;10.20;99.90;;;;;;461813;256;28152;-69
2021/09/12 04:36:33;;;;;;;2.30;2.20;;;10.20;99.90;;;;;;460562;258;28047;-69
2021/09/12 04:38:35;;;;;;;2.80;2.63;;;10.20;99.90;;;;;;460587;258;28590;-69
2021/09/12 04:40:36;;;;;;;2.47;2.30;;;10.20;99.90;;;;;;460567;258;28224;-70
2021/09/12 04:42:37;;;;;;;2.20;2.10;;;10.30;99.90;;;;;;460586;258;28566;-69
2021/09/12 04:44:38;;;;;;;2.73;2.57;;;10.30;99.90;;;;;;460600;258;28045;-70
2021/09/12 04:46:40;;;;;;;2.60;2.50;;;10.20;99.90;;;;;;460558;258;28183;-69
2021/09/12 04:48:41;;;;;;;2.80;2.60;;;10.20;99.90;;;;;;460584;258;27722;-69
2021/09/12 04:50:42;;;;;;;2.80;2.60;;;10.20;99.90;;;;;;460591;258;28097;-69
2021/09/12 04:52:43;;;;;;;2.70;2.50;;;10.20;99.90;;;;;;460612;258;27920;-70
2021/09/12 04:54:45;;;;;;;2.63;2.43;;;10.20;99.90;;;;;;460624;258;27708;-69
2021/09/12 04:56:46;;;;;;;2.73;2.53;;;10.20;99.90;;;;;;460598;258;27933;-69
2021/09/12 04:58:47;;;;;;;2.60;2.50;;;10.20;99.90;;;;;;460606;258;27823;-70
2021/09/12 05:00:48;;;;;;;2.30;2.20;;;10.20;99.90;;;;;;460581;258;28017;-69
2021/09/12 05:02:50;;;;;;;2.47;2.37;;;10.20;99.90;;;;;;460628;258;28587;-69
2021/09/12 05:04:51;;;;;;;2.70;2.50;;;10.20;99.90;;;;;;460601;258;28683;-70
2021/09/12 05:06:52;;;;;;;2.50;2.17;;;10.20;99.90;;;;;;460603;258;28522;-69
2021/09/12 05:08:53;;;;;;;2.23;2.13;;;10.20;99.90;;;;;;460625;258;28108;-70
2021/09/12 05:10:55;;;;;;;2.03;1.93;;;10.20;99.90;;;;;;460583;258;28102;-69
2021/09/12 05:12:56;;;;;;;2.70;2.50;;;10.20;99.90;;;;;;460626;258;28092;-69
2021/09/12 05:14:57;;;;;;;2.00;1.90;;;10.10;99.90;;;;;;460599;258;28108;-69
2021/09/12 05:16:58;;;;;;;2.50;2.30;;;10.10;99.90;;;;;;460583;258;27553;-69
2021/09/12 05:19:00;;;;;;;2.70;2.50;;;10.10;99.90;;;;;;460531;258;28166;-69
2021/09/12 05:21:01;;;;;;;2.30;2.10;;;10.10;99.90;;;;;;467064;254;27929;-69
2021/09/12 05:23:02;;;;;;;3.03;2.70;;;10.20;99.90;;;;;;459775;258;27842;-69
2021/09/12 05:25:03;;;;;;;2.40;2.30;;;10.20;99.90;;;;;;459772;259;27969;-69
2021/09/12 05:27:05;;;;;;;4.43;2.50;;;10.20;99.90;;;;;;459719;259;28459;-69
2021/09/12 05:29:06;;;;;;;2.33;2.23;;;10.20;99.90;;;;;;459758;259;28310;-69
2021/09/12 05:31:07;;;;;;;2.23;2.13;;;10.20;99.90;;;;;;459747;259;28297;-69
2021/09/12 05:33:08;;;;;;;2.30;2.20;;;10.20;99.90;;;;;;459752;259;28490;-70
2021/09/12 05:35:10;;;;;;;2.67;2.47;;;10.30;99.90;;;;;;459760;259;28087;-69
2021/09/12 05:37:12;;;;;;;2.90;2.10;;;10.30;99.90;;;;;;459745;259;27580;-69
2021/09/12 05:39:12;;;;;;;2.30;2.10;;;10.40;99.90;;;;;;459734;259;27993;-70
2021/09/12 05:41:13;;;;;;;2.30;2.20;;;10.40;99.90;;;;;;459757;259;27623;-69
2021/09/12 05:43:15;;;;;;;2.40;2.30;;;10.40;99.90;;;;;;459744;259;27971;-69
2021/09/12 05:45:16;;;;;;;2.47;2.27;;;10.40;99.90;;;;;;459782;259;27994;-69
2021/09/12 05:47:17;;;;;;;2.10;1.97;;;10.50;99.90;;;;;;459709;258;27817;-69
2021/09/12 05:49:18;;;;;;;2.50;2.30;;;10.50;99.90;;;;;;459745;253;27965;-70
2021/09/12 05:51:20;;;;;;;2.50;2.30;;;10.50;99.90;;;;;;459759;259;28204;-69
2021/09/12 05:53:24;;;;;;;2.37;2.17;;;10.50;99.90;;;;;;459748;259;28510;-69
2021/09/12 05:55:22;;;;;;;2.37;2.27;;;10.40;99.90;;;;;;459729;259;28474;-70
2021/09/12 05:57:23;;;;;;;3.40;2.17;;;10.40;99.90;;;;;;459743;259;28555;-70
2021/09/12 05:59:25;;;;;;;2.37;2.20;;;10.50;99.90;;;;;;459749;259;27749;-69
2021/09/12 06:01:26;;;;;;;2.27;2.17;;;10.50;99.90;;;;;;459765;258;27975;-70
2021/09/12 06:03:27;;;;;;;4.60;2.90;;;10.60;99.90;;;;;;459746;259;27678;-69
2021/09/12 06:05:28;;;;;;;2.63;2.43;;;10.60;99.90;;;;;;459758;258;28067;-69
2021/09/12 06:07:30;;;;;;;2.37;2.27;;;10.60;99.90;;;;;;459742;259;27849;-70
2021/09/12 06:09:31;;;;;;;2.43;2.23;;;10.70;99.90;;;;;;459742;259;27887;-69
2021/09/12 06:11:32;;;;;;;2.30;2.20;;;10.80;99.90;;;;;;459756;259;28209;-70
2021/09/12 06:13:33;;;;;;;2.43;2.23;;;10.80;99.90;;;;;;459739;259;28006;-70
2021/09/12 06:15:35;;;;;;;4.37;2.70;;;10.90;99.90;;;;;;459748;259;28760;-69
2021/09/12 06:17:36;;;;;;;1.93;1.83;;;10.90;99.90;;;;;;459756;258;28646;-69
2021/09/12 06:19:37;;;;;;;2.80;2.60;;;10.90;99.90;;;;;;459736;259;28562;-70
2021/09/12 06:21:38;;;;;;;2.37;2.17;;;11.00;99.90;;;;;;459782;259;28488;-69
2021/09/12 06:23:40;;;;;;;2.40;2.30;;;11.10;99.90;;;;;;459759;259;27896;-69
2021/09/12 06:25:41;;;;;;;2.30;2.13;;;11.10;99.90;;;;;;459769;259;28068;-69
2021/09/12 06:27:42;;;;;;;2.60;2.40;;;11.20;99.90;;;;;;459774;259;28265;-69
2021/09/12 06:29:43;;;;;;;1.93;1.83;;;11.30;99.90;;;;;;459740;259;28102;-70
2021/09/12 06:31:45;;;;;;;2.67;2.47;;;11.30;99.90;;;;;;459761;258;28215;-70
2021/09/12 06:33:46;;;;;;;2.03;1.93;;;11.40;99.90;;;;;;459745;258;27962;-70
2021/09/12 06:35:47;;;;;;;2.17;2.03;;;11.40;99.90;;;;;;459754;259;28079;-70
2021/09/12 06:37:48;;;;;;;2.50;2.40;;;11.40;99.90;;;;;;459732;259;28073;-70
2021/09/12 06:39:50;;;;;;;2.20;2.10;;;11.50;99.90;;;;;;459722;259;28185;-70
2021/09/12 06:41:51;;;;;;;2.17;2.07;;;11.60;99.90;;;;;;459764;259;28694;-69
2021/09/12 06:43:52;;;;;;;2.20;2.10;;;11.70;99.90;;;;;;459761;259;28678;-69
2021/09/12 06:45:53;;;;;;;1.90;1.80;;;11.80;99.90;;;;;;459767;259;28845;-70
2021/09/12 06:47:55;;;;;;;2.07;1.97;;;11.80;99.90;;;;;;459711;259;29311;-70
2021/09/12 06:49:57;;;;;;;2.60;2.40;;;11.90;99.90;;;;;;459711;259;28082;-70
2021/09/12 06:51:57;;;;;;;2.20;2.10;;;12.00;99.90;;;;;;460488;254;28243;-70
2021/09/12 06:53:58;;;;;;;2.10;2.00;;;12.10;99.90;;;;;;463386;254;28230;-70
2021/09/12 06:56:00;;;;;;;2.20;2.10;;;12.20;99.90;;;;;;462944;254;28288;-70
2021/09/12 06:58:01;;;;;;;2.60;2.50;;;12.20;99.90;;;;;;461466;258;28334;-70
2021/09/12 07:00:02;;;;;;;2.90;2.70;;;12.30;99.90;;;;;;461472;258;28630;-69
2021/09/12 07:02:04;;;;;;;2.30;2.20;;;12.40;99.90;;;;;;461505;258;28939;-70
2021/09/12 07:04:05;;;;;;;2.37;2.20;;;12.40;99.90;;;;;;461506;258;28411;-70
2021/09/12 07:06:06;;;;;;;2.37;2.27;;;12.50;99.90;;;;;;461519;258;28197;-70
2021/09/12 07:08:07;;;;;;;2.10;1.97;;;12.60;99.90;;;;;;461517;258;28470;-70
2021/09/12 07:10:08;;;;;;;2.20;2.10;;;12.60;99.90;;;;;;461470;258;28047;-69
2021/09/12 07:12:10;;;;;;;2.60;2.40;;;12.70;99.90;;;;;;461485;258;28261;-70
2021/09/12 07:14:11;;;;;;;2.30;2.20;;;12.90;99.90;;;;;;461478;258;28656;-70
2021/09/12 07:16:12;;;;;;;2.37;2.17;;;13.00;99.90;;;;;;461493;258;28550;-72
2021/09/12 07:18:13;;;;;;;2.20;2.10;;;13.10;99.90;;;;;;461457;258;28681;-70
2021/09/12 07:20:15;;;;;;;2.63;2.50;;;13.20;99.90;;;;;;461404;258;28400;-70
2021/09/12 07:22:16;;;;;;;2.70;2.50;;;13.20;99.90;;;;;;461506;258;29032;-70
2021/09/12 07:24:17;;;;;;;2.67;2.53;;;13.30;99.90;;;;;;461476;258;29323;-70
2021/09/12 07:26:20;;;;;;;2.63;2.43;;;;;;;;;;461501;258;29133;-70
2021/09/12 07:28:21;;;;;;;2.33;2.23;;;13.50;99.90;;;;;;460939;253;27917;-70
2021/09/12 07:30:22;;;;;;;2.30;2.20;;;13.60;99.90;;;;;;459529;253;28328;-70
2021/09/12 07:32:23;;;;;;;2.57;2.37;;;13.60;99.90;;;;;;459207;259;28229;-70
2021/09/12 07:34:25;;;;;;;2.57;2.47;;;13.70;99.90;;;;;;460756;256;29458;-70
2021/09/12 07:36:26;;;;;;;2.50;2.30;;;13.80;99.90;;;;;;460337;256;28916;-70
2021/09/12 07:38:27;;;;;;;2.60;2.40;;;13.90;99.90;;;;;;461316;254;28738;-72
2021/09/12 07:40:28;;;;;;;2.53;2.30;;;14.10;99.90;;;;;;459730;259;28530;-70
2021/09/12 07:42:30;;;;;;;2.67;2.47;;;14.20;99.90;;;;;;459727;259;28197;-72
2021/09/12 07:44:31;;;;;;;2.77;2.57;;;14.30;99.90;;;;;;459721;259;28229;-70
2021/09/12 07:46:32;;;;;;;2.70;2.60;;;14.40;99.90;;;;;;459753;259;28246;-70
2021/09/12 07:48:33;;;;;;;2.67;2.47;;;14.50;99.90;;;;;;459729;259;28471;-71
2021/09/12 07:50:35;;;;;;;4.67;2.90;;;14.50;99.90;;;;;;459706;259;28227;-71
2021/09/12 07:52:36;;;;;;;2.90;2.57;;;14.60;99.90;;;;;;459724;259;28421;-71
2021/09/12 07:54:37;;;;;;;2.50;2.40;;;14.60;99.90;;;;;;459734;259;28416;-71
2021/09/12 07:56:38;;;;;;;3.10;2.90;;;14.60;99.90;;;;;;459712;259;28241;-69
2021/09/12 07:58:40;;;;;;;2.30;2.20;;;14.70;99.90;;;;;;459732;259;29011;-71
2021/09/12 08:00:41;;;;;;;2.97;2.80;;;14.80;99.90;;;;;;459744;259;28942;-71
2021/09/12 08:02:42;;;;;;;2.60;2.43;;;15.00;99.90;;;;;;459439;258;29296;-72
2021/09/12 08:04:45;;;;;;;2.97;2.73;;;15.10;99.90;;;;;;464484;251;28669;-72
2021/09/12 08:06:46;;;;;;;2.90;2.70;;;15.10;99.90;;;;;;465301;251;28424;-72
2021/09/12 08:08:47;;;;;;;2.40;2.20;;;15.10;99.90;;;;;;464632;255;28626;-71
2021/09/12 08:10:48;;;;;;;2.60;2.50;;;15.00;99.90;;;;;;461065;258;28892;-71
2021/09/12 08:12:50;;;;;;;2.30;2.20;;;15.10;99.90;;;;;;467028;254;29083;-69
2021/09/12 08:14:51;;;;;;;2.30;2.20;;;15.20;99.90;;;;;;464009;251;29014;-69
2021/09/12 08:16:53;;;;;;;2.40;2.30;;;15.30;99.90;;;;;;464159;250;28582;-69
2021/09/12 08:18:53;;;;;;;2.70;2.50;;;15.30;99.90;;;;;;468042;250;28884;-72
2021/09/12 08:20:55;;;;;;;2.10;2.00;;;15.40;99.90;;;;;;474985;250;28547;-72
2021/09/12 08:22:56;;;;;;;2.53;2.33;;;15.50;99.90;;;;;;474982;250;28780;-71
2021/09/12 08:24:57;;;;;;;2.70;2.50;;;15.50;99.90;;;;;;469615;250;29050;-72
2021/09/12 08:26:58;;;;;;;2.90;2.60;;;15.50;99.90;;;;;;464175;254;28871;-72
2021/09/12 08:29:00;;;;;;;2.50;2.40;;;15.70;99.90;;;;;;463966;254;28953;-70
2021/09/12 08:31:01;;;;;;;2.73;2.53;;;15.70;99.90;;;;;;464192;254;29004;-70
2021/09/12 08:33:02;;;;;;;2.43;2.23;;;15.70;99.90;;;;;;464209;254;28921;-70
2021/09/12 08:35:03;;;;;;;2.40;2.20;;;15.70;99.90;;;;;;464188;254;29404;-71
2021/09/12 08:37:05;;;;;;;2.17;1.90;;;15.90;99.90;;;;;;464247;254;29338;-71
2021/09/12 08:39:06;;;;;;;1.93;1.83;;;16.00;99.90;;;;;;464226;254;29400;-72
2021/09/12 08:41:07;;;;;;;1.90;1.80;;;16.00;99.90;;;;;;469390;250;28849;-72
2021/09/12 08:43:08;;;;;;;3.17;2.13;;;16.00;99.90;;;;;;464296;250;29010;-71
2021/09/12 08:45:10;;;;;;;2.30;2.13;;;16.00;99.90;;;;;;464045;253;28959;-71
2021/09/12 08:47:11;;;;;;;2.80;2.50;;;16.30;99.90;;;;;;464080;254;28969;-71
2021/09/12 08:49:12;;;;;;;2.40;2.20;;;16.40;99.90;;;;;;460709;252;29279;-72
2021/09/12 08:51:13;;;;;;;2.00;1.90;;;16.40;99.90;;;;;;462949;256;28898;-71
2021/09/12 08:53:15;;;;;;;2.67;2.17;;;16.40;99.90;;;;;;465681;250;28766;-70
2021/09/12 08:55:16;;;;;;;2.13;2.03;;;16.40;99.90;;;;;;464226;254;28945;-70
2021/09/12 08:57:17;;;;;;;2.10;2.00;;;16.40;99.90;;;;;;464245;254;29309;-70
2021/09/12 08:59:18;;;;;;;2.10;2.00;;;16.50;99.90;;;;;;463992;254;29503;-69
2021/09/12 09:01:20;;;;;;;2.40;2.20;;;16.60;99.90;;;;;;464163;254;29425;-69
2021/09/12 09:03:21;;;;;;;2.33;2.13;;;16.60;99.90;;;;;;464233;254;28903;-69
2021/09/12 09:05:22;;;;;;;2.30;2.20;;;16.80;99.90;;;;;;464170;254;29006;-70
2021/09/12 09:07:23;;;;;;;2.40;2.13;;;16.80;99.90;;;;;;464243;247;28935;-70
2021/09/12 09:09:25;;;;;;;2.27;2.10;;;16.80;99.90;;;;;;464232;254;28901;-70
2021/09/12 09:11:26;;;;;;;2.20;2.10;;;16.80;99.90;;;;;;464222;255;28976;-70
2021/09/12 09:13:29;;;;;;;1.97;1.87;;;17.00;99.90;;;;;;464212;254;28953;-71
2021/09/12 09:15:29;;;;;;;2.30;2.10;;;17.10;99.90;;;;;;464215;254;28896;-70
2021/09/12 09:17:30;;;;;;;2.17;2.07;;;17.20;99.90;;;;;;464236;254;29025;-72
2021/09/12 09:19:31;;;;;;;2.40;2.20;;;17.30;99.90;;;;;;464212;254;28913;-69
2021/09/12 09:21:32;;;;;;;3.30;2.33;;;17.30;99.90;;;;;;464215;254;28895;-71
2021/09/12 09:23:34;;;;;;;2.10;2.00;;;17.30;99.90;;;;;;464209;254;28954;-72
2021/09/12 09:25:35;;;;;;;8.70;2.70;;;17.50;99.90;;;;;;464213;254;28947;-72
2021/09/12 09:27:36;;;;;;;2.10;1.90;;;17.50;99.90;;;;;;464226;254;28893;-71
2021/09/12 09:29:37;;;;;;;2.50;2.07;;;17.60;99.90;;;;;;464220;254;28986;-72
2021/09/12 09:31:39;;;;;;;1.90;1.80;;;17.50;99.90;;;;;;464200;254;29455;-69
2021/09/12 09:33:41;;;;;;;2.03;1.87;;;17.60;99.90;;;;;;464209;254;29425;-71
2021/09/12 09:35:41;;;;;;;2.73;2.00;;;17.70;99.90;;;;;;464191;254;29404;-69
2021/09/12 09:37:42;;;;;;;4.80;2.10;;;17.80;99.90;;;;;;464234;254;28922;-70
2021/09/12 09:39:44;;;;;;;2.07;1.97;;;18.00;99.90;;;;;;464213;254;28922;-70
2021/09/12 09:41:45;;;;;;;2.00;1.90;;;18.20;99.90;;;;;;464250;254;28942;-70
2021/09/12 09:43:46;;;;;;;2.40;2.10;;;18.20;99.90;;;;;;464215;254;28900;-71
2021/09/12 09:45:47;;;;;;;2.10;2.00;;;18.20;99.90;;;;;;464221;254;28929;-70
2021/09/12 09:47:49;;;;;;;2.37;2.17;;;18.20;99.90;;;;;;464205;254;28876;-70
2021/09/12 09:49:50;;;;;;;2.30;2.10;;;18.20;99.90;;;;;;464142;254;28928;-69
2021/09/12 09:51:51;;;;;;;2.33;2.13;;;18.30;99.90;;;;;;464082;254;29275;-70
2021/09/12 09:53:52;;;;;;;1.97;1.87;;;18.30;99.90;;;;;;464068;254;29033;-69
2021/09/12 09:55:54;;;;;;;2.43;2.10;;;18.10;99.90;;;;;;463988;254;29378;-71
2021/09/12 09:57:55;;;;;;;2.33;1.93;;;18.10;99.90;;;;;;464225;254;29351;-72
2021/09/12 09:59:57;;;;;;;2.20;2.00;;;18.00;99.90;;;;;;464222;254;29399;-71
2021/09/12 10:01:58;;;;;;;2.10;2.00;;;18.00;99.90;;;;;;464224;254;28947;-71
2021/09/12 10:03:59;;;;;;;2.20;2.10;;;18.00;99.90;;;;;;464210;254;28886;-72
2021/09/12 10:06:00;;;;;;;2.30;2.10;;;18.00;99.90;;;;;;464223;254;28992;-69
2021/09/12 10:08:01;;;;;;;2.10;2.00;;;18.20;99.90;;;;;;464232;254;28959;-70
2021/09/12 10:10:02;;;;;;;2.73;1.83;;;18.30;99.90;;;;;;464211;254;29001;-70
2021/09/12 10:12:04;;;;;;;2.10;2.00;;;18.50;99.90;;;;;;464255;254;28984;-72
2021/09/12 10:14:05;;;;;;;2.13;2.03;;;18.70;99.90;;;;;;464236;254;28899;-72
2021/09/12 10:16:06;;;;;;;2.33;2.13;;;18.90;99.90;;;;;;464230;254;28997;-72
2021/09/12 10:18:07;;;;;;;1.83;1.73;;;19.00;99.90;;;;;;464236;252;28885;-71
2021/09/12 10:20:09;;;;;;;2.40;1.80;;;18.90;99.90;;;;;;464185;254;29388;-71
2021/09/12 10:22:10;;;;;;;2.30;2.00;;;19.00;99.90;;;;;;464222;254;29421;-72
2021/09/12 10:24:11;;;;;;;2.00;1.90;;;18.90;99.90;;;;;;464207;254;29322;-71
2021/09/12 10:26:12;;;;;;;2.30;2.20;;;18.60;99.90;;;;;;464225;254;28920;-71
2021/09/12 10:28:14;;;;;;;2.20;1.97;;;18.60;99.90;;;;;;464193;254;28903;-70
2021/09/12 10:30:15;;;;;;;1.90;1.80;;;18.50;99.90;;;;;;464194;254;28995;-70
2021/09/12 10:32:16;;;;;;;2.03;1.93;;;18.60;99.90;;;;;;464233;254;28916;-71